Time;durP1;ratioP1;P1;durP2;ratioP2;P2;SDS_P1;SDS_P2;PMS_P1;PMS_P2;Temp;Humidity;BMP_temperature;BMP_pressure;BME280_temperature;BME280_humidity;BME280_pressure;Samples;Min_cycle;Max_cycle;Signal;HPM_P1;HPM_P2
2022/05/26 00:01:04;;;;;;;7.38;2.88;;;14.00;99.90;;;;;;5040095;28;20029;-73
2022/05/26 00:03:35;;;;;;;7.53;2.97;;;14.00;99.90;;;;;;5040289;28;20029;-73
2022/05/26 00:06:02;;;;;;;11.00;3.10;;;14.00;99.90;;;;;;5022162;28;20074;-75
2022/05/26 00:08:29;;;;;;;6.53;2.80;;;13.90;99.90;;;;;;5022463;28;20089;-75
2022/05/26 00:10:55;;;;;;;6.72;2.60;;;13.90;99.90;;;;;;5040005;28;20026;-75
2022/05/26 00:13:22;;;;;;;8.55;2.80;;;13.90;99.90;;;;;;5039865;28;20081;-75
2022/05/26 00:15:49;;;;;;;5.97;2.30;;;13.80;99.90;;;;;;5039745;28;20033;-75
2022/05/26 00:18:14;;;;;;;6.50;2.72;;;13.80;99.90;;;;;;5039913;28;20028;-74
2022/05/26 00:20:40;;;;;;;5.00;2.80;;;13.80;99.90;;;;;;5039734;28;20029;-75
2022/05/26 00:23:06;;;;;;;6.80;3.17;;;13.70;99.90;;;;;;5039896;28;20021;-74
2022/05/26 00:25:32;;;;;;;9.40;3.13;;;13.70;99.90;;;;;;5039664;28;20029;-75
2022/05/26 00:27:58;;;;;;;8.43;3.53;;;13.70;99.90;;;;;;5032526;28;20033;-74
2022/05/26 00:30:24;;;;;;;5.82;2.65;;;13.70;99.90;;;;;;5034473;28;20021;-75
2022/05/26 00:32:50;;;;;;;9.13;2.72;;;13.60;99.90;;;;;;5039645;28;20025;-75
2022/05/26 00:35:16;;;;;;;3.85;2.50;;;13.60;99.90;;;;;;5039622;28;20025;-75
2022/05/26 00:37:43;;;;;;;7.30;2.88;;;13.50;99.90;;;;;;5039579;28;20030;-75
2022/05/26 00:40:11;;;;;;;4.70;3.47;;;13.50;99.90;;;;;;5021585;28;20052;-75
2022/05/26 00:42:36;;;;;;;5.28;2.80;;;13.50;99.90;;;;;;5039268;28;20037;-74
2022/05/26 00:45:04;;;;;;;7.07;2.65;;;13.50;99.90;;;;;;5039235;28;20033;-75
2022/05/26 00:47:34;;;;;;;3.75;2.30;;;13.50;99.90;;;;;;5021264;28;20118;-74
2022/05/26 00:50:14;;;;;;;14.97;3.60;;;13.50;99.90;;;;;;5021384;28;20025;-74
2022/05/26 00:52:45;;;;;;;3.55;2.60;;;13.50;99.90;;;;;;5039411;28;20022;-75
2022/05/26 00:55:21;;;;;;;3.97;2.90;;;13.40;99.90;;;;;;5039123;28;20401;-75
2022/05/26 00:57:52;;;;;;;4.30;2.97;;;13.40;99.90;;;;;;5038463;28;20022;-75
2022/05/26 01:00:26;;;;;;;5.20;3.10;;;13.40;99.90;;;;;;5021153;28;20029;-75
2022/05/26 01:02:57;;;;;;;6.13;3.05;;;13.30;99.90;;;;;;5037978;28;20030;-74
2022/05/26 01:05:30;;;;;;;7.38;2.60;;;13.30;99.90;;;;;;5021210;28;20036;-76
2022/05/26 01:07:57;;;;;;;6.18;2.90;;;13.20;99.90;;;;;;5038755;28;20030;-76
2022/05/26 01:10:23;;;;;;;6.38;2.60;;;13.20;99.90;;;;;;5021014;28;20022;-74
2022/05/26 01:12:49;;;;;;;8.25;3.00;;;13.20;99.90;;;;;;5020684;28;20025;-76
2022/05/26 01:15:21;;;;;;;6.05;2.90;;;13.20;99.90;;;;;;5020896;28;20393;-74
2022/05/26 01:18:05;;;;;;;7.50;2.90;;;13.10;99.90;;;;;;5038636;28;20029;-75
2022/05/26 01:20:59;;;;;;;6.13;3.17;;;13.10;99.90;;;;;;5038675;28;20028;-74
2022/05/26 01:23:37;;;;;;;5.03;2.75;;;13.00;99.90;;;;;;5020856;28;20087;-75
2022/05/26 01:26:06;;;;;;;10.82;3.00;;;12.90;99.90;;;;;;5038471;28;20096;-75
2022/05/26 01:28:58;;;;;;;7.38;3.00;;;12.90;99.90;;;;;;5038239;28;20029;-74
2022/05/26 01:31:41;;;;;;;9.52;3.30;;;12.80;99.90;;;;;;5016166;28;20029;-75
2022/05/26 01:34:42;;;;;;;7.25;2.97;;;12.80;99.90;;;;;;5035578;28;20025;-74
2022/05/26 01:37:41;;;;;;;8.25;3.95;;;12.70;99.90;;;;;;5036190;28;20032;-74
2022/05/26 01:40:36;;;;;;;5.75;3.03;;;12.70;99.90;;;;;;4984870;28;20482;-74
2022/05/26 01:43:28;;;;;;;8.15;2.63;;;12.60;99.90;;;;;;5038108;28;20044;-75
2022/05/26 01:46:24;;;;;;;6.78;3.80;;;12.60;99.90;;;;;;5038315;28;20017;-74
2022/05/26 01:49:05;;;;;;;11.10;3.67;;;12.60;99.90;;;;;;5038178;28;20039;-74
2022/05/26 01:52:00;;;;;;;7.50;3.25;;;12.60;99.90;;;;;;5020213;28;20021;-74
2022/05/26 01:54:40;;;;;;;7.72;3.80;;;12.70;99.90;;;;;;5038063;28;20026;-74
2022/05/26 01:57:51;;;;;;;6.72;3.10;;;12.60;99.90;;;;;;5020274;28;20076;-74
2022/05/26 02:00:19;;;;;;;7.15;3.22;;;12.60;99.90;;;;;;5020066;28;20044;-74
2022/05/26 02:03:07;;;;;;;7.00;3.30;;;12.60;99.90;;;;;;5037798;28;20021;-75
2022/05/26 02:05:40;;;;;;;6.40;3.03;;;12.60;99.90;;;;;;5020167;28;20029;-75
2022/05/26 02:08:06;;;;;;;8.35;3.30;;;12.60;99.90;;;;;;5037658;28;20032;-75
2022/05/26 02:10:45;;;;;;;11.05;3.50;;;12.60;99.90;;;;;;5037018;28;20474;-73
2022/05/26 02:13:28;;;;;;;8.55;3.47;;;12.50;99.90;;;;;;5037567;28;20101;-74
2022/05/26 02:16:16;;;;;;;4.40;2.78;;;12.50;99.90;;;;;;5019597;28;20021;-74
2022/05/26 02:18:53;;;;;;;9.38;3.20;;;12.60;99.90;;;;;;5036952;28;20073;-75
2022/05/26 02:21:44;;;;;;;6.20;3.33;;;12.60;99.90;;;;;;5037966;28;20478;-74
2022/05/26 02:24:23;;;;;;;8.77;3.53;;;12.50;99.90;;;;;;5037480;28;20029;-74
2022/05/26 02:26:50;;;;;;;7.32;3.55;;;12.50;99.90;;;;;;5037667;28;20029;-74
2022/05/26 02:32:03;;;;;;;8.88;3.80;;;12.40;99.90;;;;;;5037359;28;20048;-74
2022/05/26 02:34:29;;;;;;;7.72;2.90;;;12.40;99.90;;;;;;5037637;28;20113;-74
2022/05/26 02:36:58;;;;;;;8.60;3.45;;;12.30;99.90;;;;;;5037279;28;20017;-74
2022/05/26 02:39:24;;;;;;;6.90;3.58;;;12.30;99.90;;;;;;5019564;28;20036;-74
2022/05/26 02:41:54;;;;;;;9.63;3.05;;;12.30;99.90;;;;;;5037153;28;20037;-74
2022/05/26 02:44:22;;;;;;;5.70;3.65;;;12.20;99.90;;;;;;5019170;28;20030;-74
2022/05/26 02:47:09;;;;;;;5.47;3.42;;;12.20;99.90;;;;;;5036925;28;20049;-73
2022/05/26 02:50:00;;;;;;;8.93;3.75;;;12.20;99.90;;;;;;5037185;28;20111;-74
2022/05/26 02:52:42;;;;;;;9.55;3.42;;;12.20;99.90;;;;;;5018633;28;20108;-74
2022/05/26 02:55:18;;;;;;;10.23;3.63;;;12.10;99.90;;;;;;5019212;28;20036;-75
2022/05/26 02:57:50;;;;;;;4.55;3.00;;;12.10;99.90;;;;;;5036920;28;20444;-74
2022/05/26 03:00:41;;;;;;;10.20;3.55;;;12.10;99.90;;;;;;5036871;28;20025;-74
2022/05/26 03:03:29;;;;;;;8.88;3.25;;;12.10;99.90;;;;;;5010764;28;20033;-74
2022/05/26 03:06:13;;;;;;;4.93;3.17;;;12.10;99.90;;;;;;5036879;28;20690;-74
2022/05/26 03:08:41;;;;;;;9.52;3.28;;;12.10;99.90;;;;;;5037012;28;20022;-74
2022/05/26 03:11:16;;;;;;;4.10;3.20;;;12.10;99.90;;;;;;5036799;28;20104;-75
2022/05/26 03:13:42;;;;;;;11.70;4.10;;;12.00;99.90;;;;;;5036724;28;20017;-74
2022/05/26 03:16:08;;;;;;;11.73;3.65;;;12.00;99.90;;;;;;5018829;28;20520;-74
2022/05/26 03:18:34;;;;;;;5.22;2.85;;;12.00;99.90;;;;;;5036928;28;20036;-74
2022/05/26 03:21:02;;;;;;;7.05;2.90;;;12.00;99.90;;;;;;5038594;28;20029;-74
2022/05/26 03:23:28;;;;;;;7.28;3.00;;;12.00;99.90;;;;;;5040895;28;20084;-74
2022/05/26 03:25:58;;;;;;;7.07;3.50;;;12.00;99.90;;;;;;5040770;28;20025;-74
2022/05/26 03:28:26;;;;;;;4.43;3.20;;;12.10;99.90;;;;;;5022698;28;20444;-75
2022/05/26 03:30:52;;;;;;;7.03;3.70;;;12.10;99.90;;;;;;5040501;28;20094;-73
2022/05/26 03:33:18;;;;;;;16.30;4.63;;;12.10;99.90;;;;;;5022875;28;20109;-74
2022/05/26 03:41:15;;;;;;;4.70;3.60;;;12.10;99.90;;;;;;5040827;28;20055;-74
2022/05/26 03:43:52;;;;;;;8.27;3.75;;;12.10;99.90;;;;;;5040206;28;20417;-74
2022/05/26 03:46:18;;;;;;;5.18;3.22;;;12.20;99.90;;;;;;5040417;28;20051;-74
2022/05/26 03:48:44;;;;;;;6.18;3.10;;;12.10;99.90;;;;;;5040234;28;20022;-75
2022/05/26 03:51:10;;;;;;;10.13;3.83;;;12.10;99.90;;;;;;5017056;28;20031;-73
2022/05/26 03:53:36;;;;;;;4.80;3.10;;;12.10;99.90;;;;;;5040289;28;20021;-74
2022/05/26 03:56:04;;;;;;;11.93;3.80;;;12.20;99.90;;;;;;5040457;28;20025;-75
2022/05/26 03:58:31;;;;;;;6.93;3.50;;;12.20;99.90;;;;;;5039805;28;20034;-74
2022/05/26 04:01:07;;;;;;;6.38;2.70;;;12.20;99.90;;;;;;5040152;28;20033;-75
2022/05/26 04:03:33;;;;;;;8.35;3.20;;;12.20;99.90;;;;;;5040324;28;20043;-75
2022/05/26 04:05:59;;;;;;;5.10;3.00;;;12.20;99.90;;;;;;5022217;28;20025;-74
2022/05/26 04:08:25;;;;;;;7.60;2.85;;;12.20;99.90;;;;;;5040180;28;20018;-75
2022/05/26 04:10:51;;;;;;;6.68;3.40;;;12.20;99.90;;;;;;5022004;28;20018;-75
2022/05/26 04:13:17;;;;;;;9.10;3.92;;;12.20;99.90;;;;;;5039863;28;20029;-75
2022/05/26 04:15:43;;;;;;;6.07;3.70;;;12.20;99.90;;;;;;5039731;28;20032;-74
2022/05/26 04:18:09;;;;;;;12.48;3.22;;;12.20;99.90;;;;;;5039988;28;20022;-74
2022/05/26 04:20:34;;;;;;;4.97;2.72;;;12.20;99.90;;;;;;5039882;28;20111;-74
2022/05/26 04:23:00;;;;;;;4.18;2.92;;;12.30;99.90;;;;;;5039815;28;20071;-74
2022/05/26 04:25:27;;;;;;;7.25;3.63;;;12.30;99.90;;;;;;5039724;28;20049;-75
2022/05/26 04:27:53;;;;;;;8.45;3.40;;;12.30;99.90;;;;;;5039766;28;20026;-75
2022/05/26 04:30:20;;;;;;;8.95;3.58;;;12.30;99.90;;;;;;5021678;28;20048;-74
2022/05/26 04:32:46;;;;;;;5.57;3.00;;;12.30;99.90;;;;;;5038844;28;20044;-74
2022/05/26 04:35:13;;;;;;;5.38;3.05;;;12.40;99.90;;;;;;5039559;28;20469;-74
2022/05/26 04:37:40;;;;;;;6.07;2.60;;;12.40;99.90;;;;;;5038518;28;20100;-74
2022/05/26 04:40:09;;;;;;;10.68;3.22;;;12.50;99.90;;;;;;5039443;28;20488;-74
2022/05/26 04:42:37;;;;;;;7.03;3.08;;;12.50;99.90;;;;;;5039426;28;20068;-75
2022/05/26 04:45:04;;;;;;;4.30;2.90;;;12.50;99.90;;;;;;5021347;28;20508;-74
2022/05/26 04:47:30;;;;;;;7.47;2.88;;;12.60;99.90;;;;;;5021328;28;20049;-75
2022/05/26 04:49:56;;;;;;;8.32;2.83;;;12.60;99.90;;;;;;5039574;28;20033;-74
2022/05/26 04:52:24;;;;;;;6.22;3.13;;;12.60;99.90;;;;;;5039511;28;20028;-74
2022/05/26 04:54:52;;;;;;;11.63;3.20;;;12.60;99.90;;;;;;5039100;28;20029;-74
2022/05/26 04:57:20;;;;;;;7.30;3.60;;;12.70;99.90;;;;;;5039073;28;20034;-74
2022/05/26 04:59:46;;;;;;;6.22;3.35;;;12.70;99.90;;;;;;5021141;28;20030;-74
2022/05/26 05:02:14;;;;;;;7.25;2.88;;;12.80;99.90;;;;;;5039123;28;20074;-75
2022/05/26 05:04:41;;;;;;;3.70;2.63;;;12.80;99.90;;;;;;5039003;28;20028;-74
2022/05/26 05:07:09;;;;;;;5.68;2.83;;;12.80;99.90;;;;;;5039123;28;20033;-74
2022/05/26 05:09:36;;;;;;;8.32;3.30;;;12.90;99.90;;;;;;5021019;28;20397;-74
2022/05/26 05:12:03;;;;;;;9.18;2.63;;;12.90;99.90;;;;;;5038927;28;20121;-74
2022/05/26 05:14:36;;;;;;;5.78;3.20;;;12.90;99.90;;;;;;5038495;28;20026;-73
2022/05/26 05:17:03;;;;;;;8.60;3.00;;;12.90;99.90;;;;;;5038732;28;20018;-74
2022/05/26 05:19:29;;;;;;;5.35;2.72;;;12.90;99.90;;;;;;5038562;28;20028;-74
2022/05/26 05:22:30;;;;;;;4.85;2.70;;;13.00;99.90;;;;;;5020916;28;20029;-74
2022/05/26 05:25:06;;;;;;;7.85;3.30;;;12.90;99.90;;;;;;5006467;28;20068;-74
2022/05/26 05:27:35;;;;;;;4.38;2.63;;;13.00;99.90;;;;;;5020434;28;20033;-74
2022/05/26 05:30:06;;;;;;;8.95;3.50;;;13.20;99.90;;;;;;5020655;28;20029;-75
2022/05/26 05:32:59;;;;;;;11.23;3.15;;;13.30;99.90;;;;;;5012024;28;20024;-74
2022/05/26 05:35:31;;;;;;;13.52;3.08;;;13.40;99.90;;;;;;5037647;28;20434;-74
2022/05/26 05:37:57;;;;;;;8.02;3.00;;;13.50;99.90;;;;;;5038550;28;20025;-73
2022/05/26 05:40:24;;;;;;;11.25;2.80;;;13.50;99.90;;;;;;5038301;28;20022;-74
2022/05/26 05:42:50;;;;;;;10.60;2.65;;;13.50;99.90;;;;;;5020324;28;20061;-74
2022/05/26 05:45:16;;;;;;;6.60;2.67;;;13.50;99.90;;;;;;5038121;28;20030;-74
2022/05/26 05:47:41;;;;;;;7.13;2.80;;;13.50;99.90;;;;;;5020196;28;20053;-74
2022/05/26 05:50:08;;;;;;;8.63;2.63;;;13.50;99.90;;;;;;5020279;28;20017;-74
2022/05/26 05:52:34;;;;;;;9.55;2.60;;;13.50;99.90;;;;;;5020701;28;20113;-74
2022/05/26 05:55:00;;;;;;;9.75;2.80;;;13.60;99.90;;;;;;5037957;28;20018;-74
2022/05/26 05:57:26;;;;;;;9.05;3.38;;;13.70;99.90;;;;;;5038268;28;20081;-74
2022/05/26 05:59:52;;;;;;;6.18;2.95;;;13.70;99.90;;;;;;5037797;28;20488;-74
2022/05/26 06:02:18;;;;;;;7.20;2.58;;;13.70;99.90;;;;;;5020315;28;20116;-74
2022/05/26 06:04:43;;;;;;;8.88;3.80;;;13.80;99.90;;;;;;5037794;28;20037;-73
2022/05/26 06:07:18;;;;;;;7.60;2.78;;;13.80;99.90;;;;;;5037989;28;20057;-73
2022/05/26 06:09:45;;;;;;;8.70;2.70;;;13.90;99.90;;;;;;5037896;28;20017;-74
2022/05/26 06:12:12;;;;;;;7.05;2.72;;;13.90;99.90;;;;;;5037704;28;20104;-74
2022/05/26 06:14:39;;;;;;;8.55;3.20;;;14.00;99.90;;;;;;5037403;28;20071;-74
2022/05/26 06:17:08;;;;;;;10.88;2.65;;;14.00;99.90;;;;;;5037643;28;20095;-74
2022/05/26 06:19:36;;;;;;;13.98;3.35;;;14.10;99.90;;;;;;5037973;28;20025;-74
2022/05/26 06:22:10;;;;;;;5.45;2.20;;;14.10;99.90;;;;;;5037707;28;20040;-74
2022/05/26 06:24:39;;;;;;;8.55;2.53;;;14.10;99.90;;;;;;5037719;28;20025;-74
2022/05/26 06:29:52;;;;;;;9.52;2.50;;;14.20;99.90;;;;;;5037305;28;20121;-74
2022/05/26 06:37:50;;;;;;;11.18;2.50;;;14.40;99.90;;;;;;5029374;28;20045;-74
2022/05/26 06:40:16;;;;;;;9.18;3.60;;;14.60;99.90;;;;;;5004892;28;20059;-74
2022/05/26 06:42:44;;;;;;;5.38;2.53;;;14.60;99.90;;;;;;5008782;28;20026;-73
2022/05/26 06:45:11;;;;;;;11.57;2.65;;;14.70;99.90;;;;;;5037079;28;20022;-74
2022/05/26 06:47:37;;;;;;;5.25;3.13;;;14.80;99.90;;;;;;5037012;28;20514;-74
2022/05/26 06:50:03;;;;;;;7.78;2.75;;;14.80;99.90;;;;;;5035864;28;20022;-75
2022/05/26 06:52:29;;;;;;;10.68;2.30;;;14.90;99.90;;;;;;5035892;28;20026;-74
2022/05/26 06:54:56;;;;;;;9.35;2.70;;;15.00;99.90;;;;;;5035383;28;20029;-74
2022/05/26 06:57:22;;;;;;;7.32;2.85;;;15.00;99.90;;;;;;5037323;28;20120;-74
2022/05/26 06:59:48;;;;;;;14.40;2.38;;;15.10;99.90;;;;;;5036831;28;20045;-73
2022/05/26 07:02:14;;;;;;;9.82;2.88;;;15.20;99.90;;;;;;5035746;28;20029;-74
2022/05/26 07:04:42;;;;;;;6.35;2.70;;;15.40;99.90;;;;;;5035564;28;20022;-74
2022/05/26 07:07:08;;;;;;;8.70;2.58;;;15.60;99.90;;;;;;5035775;28;20125;-74
2022/05/26 07:09:34;;;;;;;9.95;2.63;;;15.80;99.90;;;;;;5036740;28;20029;-75
2022/05/26 07:12:00;;;;;;;4.40;2.20;;;15.80;99.90;;;;;;5035568;28;20026;-75
2022/05/26 07:14:26;;;;;;;9.07;2.92;;;16.00;99.90;;;;;;5026685;28;20100;-74
2022/05/26 07:16:52;;;;;;;8.38;2.70;;;16.30;99.90;;;;;;5036695;28;20987;-74
2022/05/26 07:19:19;;;;;;;7.43;2.53;;;16.30;99.90;;;;;;5019009;28;20520;-75
2022/05/26 07:21:49;;;;;;;11.63;2.45;;;16.10;99.90;;;;;;5036860;28;20463;-77
2022/05/26 07:24:16;;;;;;;;;;;15.90;99.90;;;;;;5037130;28;20021;-76
2022/05/26 07:26:42;;;;;;;9.50;2.85;;;15.70;99.90;;;;;;5036807;28;19949;-76
2022/05/26 07:29:08;;;;;;;7.82;2.35;;;15.70;99.90;;;;;;5036320;28;20037;-74
2022/05/26 07:31:34;;;;;;;9.05;3.47;;;15.80;99.90;;;;;;5019019;28;20018;-74
2022/05/26 07:34:00;;;;;;;6.35;2.45;;;15.90;99.90;;;;;;5036535;28;20048;-74
2022/05/26 07:42:05;;;;;;;12.32;2.17;;;15.90;99.90;;;;;;5036787;28;20060;-76
2022/05/26 07:44:35;;;;;;;8.75;1.95;;;16.10;99.90;;;;;;5036567;28;20029;-76
2022/05/26 07:47:06;;;;;;;8.75;2.40;;;16.30;99.90;;;;;;5015275;28;20050;-77
2022/05/26 07:49:39;;;;;;;;;;;16.60;99.90;;;;;;5017269;28;20112;-76
2022/05/26 07:52:05;;;;;;;8.10;2.30;;;16.70;99.90;;;;;;5016910;28;19905;-75
2022/05/26 07:54:32;;;;;;;9.93;2.88;;;16.60;99.90;;;;;;5015450;28;20081;-75
2022/05/26 07:56:59;;;;;;;8.95;2.25;;;16.50;99.90;;;;;;5016572;28;20410;-77
2022/05/26 07:59:26;;;;;;;10.45;2.53;;;16.30;99.90;;;;;;5016496;28;20397;-80
2022/05/26 08:01:52;;;;;;;11.55;4.53;;;16.20;99.90;;;;;;5016939;28;20047;-78
2022/05/26 08:04:18;;;;;;;9.85;2.90;;;16.30;99.90;;;;;;5015374;28;20030;-77
2022/05/26 08:06:48;;;;;;;9.52;3.15;;;16.40;99.90;;;;;;5015659;28;20026;-76
2022/05/26 08:09:19;;;;;;;3.38;1.80;;;16.60;99.90;;;;;;5020135;28;20034;-77
2022/05/26 08:11:45;;;;;;;9.93;2.30;;;16.70;99.90;;;;;;5020375;28;20022;-77
2022/05/26 08:14:12;;;;;;;6.25;2.53;;;17.00;99.90;;;;;;5014256;28;20037;-74
2022/05/26 08:16:38;;;;;;;3.55;1.88;;;17.30;99.90;;;;;;5020122;28;20030;-76
2022/05/26 08:19:05;;;;;;;9.77;1.90;;;17.10;99.90;;;;;;5019936;28;20172;-76
2022/05/26 08:21:31;;;;;;;5.68;1.90;;;16.90;99.90;;;;;;5018776;28;20065;-75
2022/05/26 08:23:58;;;;;;;7.65;2.10;;;16.70;99.90;;;;;;5019788;28;20053;-75
2022/05/26 08:26:24;;;;;;;6.50;2.00;;;16.90;99.90;;;;;;5018625;28;20116;-76
2022/05/26 08:28:50;;;;;;;7.18;2.38;;;17.10;99.90;;;;;;5019286;28;20065;-76
2022/05/26 08:31:16;;;;;;;7.18;1.92;;;17.40;99.90;;;;;;5018595;28;20029;-75
2022/05/26 08:33:42;;;;;;;7.45;2.88;;;17.60;99.90;;;;;;5018352;28;20140;-76
2022/05/26 08:36:12;;;;;;;6.32;1.98;;;17.80;99.90;;;;;;5019840;28;20475;-75
2022/05/26 08:38:39;;;;;;;7.43;1.90;;;18.00;99.90;;;;;;5019567;28;20744;-76
2022/05/26 08:41:06;;;;;;;9.45;1.85;;;18.00;99.90;;;;;;5019787;28;20026;-77
2022/05/26 08:43:50;;;;;;;6.30;2.22;;;17.90;99.90;;;;;;5018607;28;20022;-76
2022/05/26 08:46:18;;;;;;;4.53;2.25;;;17.80;99.90;;;;;;5021043;28;20100;-77
2022/05/26 08:49:11;;;;;;;6.10;3.00;;;17.70;99.90;;;;;;5038849;28;20067;-75
2022/05/26 08:52:02;;;;;;;9.82;2.72;;;17.60;99.90;;;;;;5038709;28;20025;-76
2022/05/26 08:54:36;;;;;;;9.48;2.25;;;17.30;99.90;;;;;;5020868;28;20017;-75
2022/05/26 08:57:03;;;;;;;7.75;1.67;;;17.20;99.90;;;;;;5037049;28;20508;-76
2022/05/26 08:59:40;;;;;;;7.07;2.50;;;17.10;99.90;;;;;;5038408;28;20028;-76
2022/05/26 09:02:25;;;;;;;9.73;2.40;;;17.10;99.90;;;;;;5038700;28;20025;-76
2022/05/26 09:04:54;;;;;;;8.80;1.65;;;17.40;99.90;;;;;;5038323;28;20081;-76
2022/05/26 09:13:21;;;;;;;7.10;1.98;;;17.60;99.90;;;;;;4992351;28;20041;-75
2022/05/26 09:15:47;;;;;;;2.78;1.95;;;17.70;99.90;;;;;;5037797;28;20028;-74
2022/05/26 09:18:19;;;;;;;7.93;2.03;;;17.90;99.90;;;;;;5035282;28;20017;-76
2022/05/26 09:20:48;;;;;;;6.88;1.95;;;17.90;99.90;;;;;;5020191;28;20477;-75
2022/05/26 09:23:29;;;;;;;6.18;1.77;;;18.00;99.90;;;;;;5035428;28;20025;-76
2022/05/26 09:26:15;;;;;;;4.82;1.73;;;18.00;99.90;;;;;;5020203;28;20045;-75
2022/05/26 09:28:53;;;;;;;6.15;1.70;;;18.10;99.90;;;;;;5037031;28;20038;-76
2022/05/26 09:31:31;;;;;;;4.85;1.83;;;18.10;99.90;;;;;;5018165;28;20452;-75
2022/05/26 09:34:19;;;;;;;6.63;1.40;;;18.10;99.90;;;;;;5037274;28;20028;-76
2022/05/26 09:37:00;;;;;;;4.32;1.40;;;18.00;99.90;;;;;;5036127;28;20490;-76
2022/05/26 09:39:37;;;;;;;6.63;2.33;;;18.00;99.90;;;;;;5036351;28;20058;-76
2022/05/26 09:42:08;;;;;;;3.28;1.80;;;18.00;99.90;;;;;;5037491;28;20049;-75
2022/05/26 09:45:06;;;;;;;4.55;1.60;;;18.10;99.90;;;;;;5036236;28;20029;-75
2022/05/26 09:47:57;;;;;;;7.03;1.75;;;18.30;99.90;;;;;;5037147;28;20045;-76
2022/05/26 09:50:37;;;;;;;7.47;1.55;;;18.50;99.90;;;;;;5019921;28;20477;-76
2022/05/26 09:53:09;;;;;;;5.38;1.65;;;18.80;99.90;;;;;;5037477;28;20017;-76
2022/05/26 09:55:49;;;;;;;7.75;2.40;;;19.10;99.90;;;;;;5017594;28;20029;-76
2022/05/26 09:58:37;;;;;;;6.57;2.00;;;19.20;99.90;;;;;;5013967;28;20033;-76
2022/05/26 10:01:20;;;;;;;6.85;2.10;;;19.10;99.90;;;;;;5035657;28;20095;-75
2022/05/26 10:04:17;;;;;;;3.85;1.50;;;18.90;99.90;;;;;;5018590;28;20022;-84
2022/05/26 10:07:06;;;;;;;5.28;1.67;;;18.90;99.90;;;;;;5034138;28;20104;-77
2022/05/26 10:10:02;;;;;;;6.72;1.85;;;18.80;99.90;;;;;;5001862;28;20037;-78
2022/05/26 10:12:39;;;;;;;4.43;1.80;;;18.50;99.90;;;;;;5005936;28;20052;-79
2022/05/26 10:15:18;;;;;;;10.82;2.25;;;18.30;99.90;;;;;;5035709;28;20017;-78
2022/05/26 10:18:07;;;;;;;5.15;1.98;;;18.20;99.90;;;;;;5036981;28;20022;-77
2022/05/26 10:20:51;;;;;;;7.05;1.60;;;18.20;99.90;;;;;;5036905;28;20017;-78
2022/05/26 10:23:41;;;;;;;4.55;1.88;;;18.40;99.90;;;;;;5037089;28;20470;-78
2022/05/26 10:26:46;;;;;;;7.47;2.75;;;18.50;99.90;;;;;;5019274;28;20045;-78
2022/05/26 10:29:41;;;;;;;7.18;1.60;;;18.50;99.90;;;;;;5036399;28;20025;-77
2022/05/26 10:32:29;;;;;;;5.63;1.95;;;18.60;99.90;;;;;;5018953;28;20036;-77
2022/05/26 10:35:05;;;;;;;7.03;1.90;;;18.80;99.90;;;;;;5016595;28;20425;-78
2022/05/26 10:37:44;;;;;;;3.75;1.45;;;18.90;99.90;;;;;;5034859;28;20014;-79
2022/05/26 10:40:32;;;;;;;5.75;1.95;;;18.80;99.90;;;;;;5036629;28;20083;-79
2022/05/26 10:43:06;;;;;;;4.18;1.50;;;18.90;99.90;;;;;;5036435;28;20076;-79
2022/05/26 10:45:42;;;;;;;5.72;2.00;;;18.90;99.90;;;;;;5016257;28;20029;-78
2022/05/26 10:48:43;;;;;;;2.65;1.50;;;18.90;99.90;;;;;;5024041;28;20099;-77
2022/05/26 10:51:23;;;;;;;5.72;1.63;;;18.60;99.90;;;;;;5033598;28;20041;-80
2022/05/26 10:54:05;;;;;;;3.92;2.13;;;18.40;99.90;;;;;;5037342;28;20068;-80
2022/05/26 10:56:50;;;;;;;6.22;1.70;;;18.30;99.90;;;;;;5037243;28;20488;-79
2022/05/26 10:59:30;;;;;;;5.65;1.70;;;18.20;99.90;;;;;;5037093;28;20116;-80
2022/05/26 11:02:13;;;;;;;6.32;2.13;;;18.10;99.90;;;;;;5037175;28;20021;-80
2022/05/26 11:04:42;;;;;;;4.07;2.00;;;18.10;99.90;;;;;;5018709;28;20036;-78
2022/05/26 11:07:35;;;;;;;6.65;1.48;;;18.30;99.90;;;;;;5036991;28;20040;-79
2022/05/26 11:10:14;;;;;;;3.35;1.33;;;18.50;99.90;;;;;;5006790;28;20454;-78
2022/05/26 11:12:48;;;;;;;4.25;1.60;;;18.60;99.90;;;;;;5018842;28;20025;-78
2022/05/26 11:18:45;;;;;;;4.30;1.60;;;18.90;99.90;;;;;;5025806;28;20401;-77
2022/05/26 11:21:17;;;;;;;4.45;1.40;;;19.10;99.90;;;;;;5036622;28;20022;-78
2022/05/26 11:23:44;;;;;;;5.07;1.65;;;19.30;99.90;;;;;;5036909;28;20041;-78
2022/05/26 11:26:28;;;;;;;2.05;1.20;;;19.20;99.90;;;;;;5036931;28;20025;-78
2022/05/26 11:29:04;;;;;;;2.92;1.13;;;19.20;99.90;;;;;;5036198;28;20374;-79
2022/05/26 11:38:06;;;;;;;6.75;1.67;;;18.70;99.90;;;;;;5037134;28;20101;-79
2022/05/26 11:41:03;;;;;;;3.95;1.80;;;19.00;99.90;;;;;;5035736;28;20018;-78
2022/05/26 11:43:44;;;;;;;3.08;1.45;;;19.40;99.90;;;;;;5040239;28;20081;-78
2022/05/26 11:46:31;;;;;;;6.35;1.58;;;19.90;99.90;;;;;;5022401;28;20393;-79
2022/05/26 11:48:57;;;;;;;5.57;1.05;;;19.90;99.90;;;;;;5040261;28;20048;-77
2022/05/26 11:51:39;;;;;;;5.05;1.30;;;20.10;99.90;;;;;;5022528;28;20030;-75
2022/05/26 11:54:07;;;;;;;2.97;1.40;;;20.10;99.90;;;;;;5040653;28;20236;-75
2022/05/26 11:56:32;;;;;;;2.25;1.15;;;20.20;99.90;;;;;;5022438;28;20036;-75
2022/05/26 11:59:17;;;;;;;2.50;1.10;;;20.30;99.90;;;;;;5039798;28;20029;-76
2022/05/26 12:01:53;;;;;;;3.33;1.35;;;20.90;99.90;;;;;;5022641;28;20029;-77
2022/05/26 12:04:28;;;;;;;4.20;1.77;;;21.00;99.90;;;;;;5040176;28;20029;-77
2022/05/26 12:07:00;;;;;;;3.63;1.17;;;21.00;99.90;;;;;;5022214;28;20040;-76
2022/05/26 12:09:29;;;;;;;4.53;1.17;;;21.20;99.90;;;;;;5016481;28;20033;-77
2022/05/26 12:12:08;;;;;;;3.40;1.20;;;20.90;99.90;;;;;;5018522;28;20028;-77
2022/05/26 12:14:44;;;;;;;4.82;1.08;;;20.60;99.90;;;;;;5039826;28;20029;-75
2022/05/26 12:17:37;;;;;;;1.92;1.08;;;20.10;99.90;;;;;;5022053;28;20029;-76
2022/05/26 12:20:09;;;;;;;3.35;1.55;;;19.70;99.90;;;;;;5022034;28;20029;-77
2022/05/26 12:23:01;;;;;;;2.90;1.08;;;19.50;99.90;;;;;;5037489;28;20030;-76
2022/05/26 12:25:39;;;;;;;3.47;1.23;;;19.30;99.90;;;;;;5021862;28;20029;-76
2022/05/26 12:28:14;;;;;;;2.65;1.10;;;19.30;99.90;;;;;;5039591;28;20026;-76
2022/05/26 12:30:45;;;;;;;4.00;1.60;;;19.20;99.90;;;;;;5021552;28;20033;-76
2022/05/26 12:33:20;;;;;;;3.17;1.13;;;19.20;99.90;;;;;;5039754;28;20064;-77
2022/05/26 12:36:11;;;;;;;2.33;1.00;;;19.20;99.90;;;;;;5021710;28;20021;-75
2022/05/26 12:39:10;;;;;;;4.78;1.13;;;19.20;99.90;;;;;;5039344;28;20035;-75
2022/05/26 12:42:10;;;;;;;3.25;1.45;;;19.20;99.90;;;;;;5039405;28;20032;-78
2022/05/26 12:44:41;;;;;;;3.47;1.27;;;19.20;99.90;;;;;;5039459;28;20096;-78
2022/05/26 12:47:12;;;;;;;2.25;1.10;;;19.20;99.90;;;;;;5021217;28;20053;-76
2022/05/26 12:49:54;;;;;;;2.00;1.10;;;19.20;99.90;;;;;;5039198;28;20025;-78
2022/05/26 12:52:47;;;;;;;4.75;1.15;;;19.20;99.90;;;;;;5021880;28;20034;-76
2022/05/26 12:55:19;;;;;;;3.35;1.02;;;19.60;99.90;;;;;;5039127;28;20097;-76
2022/05/26 12:58:05;;;;;;;1.83;1.10;;;19.90;99.90;;;;;;5038546;28;20486;-78
2022/05/26 13:00:31;;;;;;;2.65;1.10;;;20.00;99.90;;;;;;5021292;28;20371;-79
2022/05/26 13:03:01;;;;;;;3.75;1.45;;;20.00;99.90;;;;;;5037886;28;20090;-78
2022/05/26 13:05:30;;;;;;;5.05;1.48;;;19.80;99.90;;;;;;5039139;28;20017;-77
2022/05/26 13:07:57;;;;;;;4.20;1.20;;;20.00;99.90;;;;;;5036309;28;20041;-76
2022/05/26 13:10:37;;;;;;;3.65;1.23;;;20.00;99.90;;;;;;5023598;28;20022;-77
2022/05/26 13:13:31;;;;;;;3.28;1.30;;;19.80;99.90;;;;;;5005489;28;20026;-79
2022/05/26 13:16:31;;;;;;;1.20;0.90;;;19.70;99.90;;;;;;5036796;28;20163;-76
2022/05/26 13:19:12;;;;;;;1.75;1.25;;;19.60;99.90;;;;;;5020182;28;20026;-77
2022/05/26 13:21:40;;;;;;;2.13;1.25;;;19.70;99.90;;;;;;5036867;28;20033;-77
2022/05/26 13:24:15;;;;;;;2.67;1.10;;;19.60;99.90;;;;;;5037853;28;20048;-77
2022/05/26 13:26:43;;;;;;;4.38;1.40;;;19.40;99.90;;;;;;5037629;28;20025;-76
2022/05/26 13:29:10;;;;;;;9.30;1.73;;;19.30;99.90;;;;;;5020113;28;20505;-77
2022/05/26 13:34:29;;;;;;;2.95;1.42;;;18.80;99.90;;;;;;5038680;28;20078;-76
2022/05/26 13:36:55;;;;;;;2.50;1.20;;;18.60;99.90;;;;;;5027959;28;20073;-75
2022/05/26 13:39:24;;;;;;;5.95;1.85;;;18.50;99.90;;;;;;5020469;28;20040;-77
2022/05/26 13:41:53;;;;;;;5.13;1.75;;;18.50;99.90;;;;;;5020173;28;20026;-76
2022/05/26 13:44:38;;;;;;;3.80;1.55;;;18.50;99.90;;;;;;5038047;28;20440;-77
2022/05/26 13:47:08;;;;;;;5.93;1.67;;;18.50;99.90;;;;;;5037283;28;20069;-76
2022/05/26 13:50:06;;;;;;;3.88;2.28;;;18.60;99.90;;;;;;5019467;28;20037;-77
2022/05/26 13:52:35;;;;;;;4.05;2.35;;;18.70;99.90;;;;;;5028795;28;20021;-77
2022/05/26 13:55:15;;;;;;;7.00;1.98;;;18.90;99.90;;;;;;5037337;28;20107;-78
2022/05/26 13:57:48;;;;;;;5.07;1.85;;;19.10;99.90;;;;;;5036281;28;20037;-75
2022/05/26 14:00:24;;;;;;;1.95;1.50;;;19.00;99.90;;;;;;5037281;28;20571;-76